createdAt,value
2022-12-23T00:04:39.287Z,6.59
2022-12-23T00:24:45.068Z,7.72
2022-12-23T00:44:50.841Z,8.17
2022-12-23T01:04:56.525Z,8.22
2022-12-23T01:25:02.313Z,8.48
2022-12-23T01:45:08.065Z,10.20
2022-12-23T02:05:13.906Z,9.58
2022-12-23T02:25:19.677Z,9.29
2022-12-23T02:45:25.436Z,9.03
2022-12-23T03:05:31.224Z,10.13
2022-12-23T03:25:36.995Z,10.56
2022-12-23T03:45:42.738Z,12.42
2022-12-23T04:05:48.399Z,10.44
2022-12-23T04:25:54.132Z,10.06
2022-12-23T04:45:59.878Z,10.59
2022-12-23T05:06:05.607Z,11.38
2022-12-23T05:26:11.372Z,10.02
2022-12-23T05:46:22.684Z,9.89
2022-12-23T06:06:22.456Z,10.13
2022-12-23T06:26:28.187Z,9.99
2022-12-23T06:46:33.998Z,11.82
2022-12-23T07:06:39.717Z,9.95
2022-12-23T07:26:45.454Z,10.03
2022-12-23T07:46:51.259Z,10.44
2022-12-23T08:06:57.032Z,10.63
2022-12-23T08:27:02.830Z,10.41
2022-12-23T08:47:08.606Z,8.15
2022-12-23T09:07:14.363Z,4.09
2022-12-23T09:27:20.134Z,3.90
2022-12-23T09:47:25.867Z,6.97
2022-12-23T10:07:31.670Z,9.83
2022-12-23T10:27:37.449Z,9.68
2022-12-23T10:47:43.216Z,7.50
2022-12-23T11:07:49.005Z,8.32
2022-12-23T11:27:54.726Z,6.12
2022-12-23T11:48:00.569Z,6.34
2022-12-23T12:08:06.367Z,6.95
2022-12-23T12:48:18.658Z,8.99
2022-12-23T13:28:27.112Z,21.67
2022-12-23T13:48:32.875Z,17.92
2022-12-23T14:08:38.709Z,19.56
2022-12-23T14:28:44.569Z,15.34
2022-12-23T14:48:59.572Z,18.27
2022-12-23T15:08:55.789Z,12.92
2022-12-23T15:29:01.704Z,11.21
2022-12-23T15:49:07.546Z,13.50
2022-12-23T16:09:13.358Z,18.66
2022-12-23T16:29:19.174Z,14.19
2022-12-23T16:49:31.192Z,1.49
2022-12-23T17:09:30.281Z,1.54
2022-12-23T17:29:36.644Z,1.42
2022-12-23T17:49:42.737Z,2.07
2022-12-23T18:09:52.298Z,1.94
2022-12-23T18:29:56.627Z,2.14
2022-12-23T18:50:02.552Z,2.50
2022-12-23T19:10:08.332Z,1.88
2022-12-23T19:30:14.184Z,1.98
2022-12-23T19:50:20.473Z,1.80
2022-12-23T20:10:26.376Z,2.10
2022-12-23T20:30:32.261Z,1.81
2022-12-23T20:50:38.083Z,1.18
2022-12-23T21:10:44.369Z,1.08
2022-12-23T21:30:50.163Z,0.80
2022-12-23T21:50:55.998Z,0.88
2022-12-23T22:11:01.889Z,1.12
2022-12-23T22:31:08.296Z,0.95
2022-12-23T22:51:14.473Z,0.81
2022-12-23T23:11:20.299Z,0.78
2022-12-23T23:31:43.531Z,0.70
2022-12-23T23:51:32.076Z,1.06
